Time;durP1;ratioP1;P1;durP2;ratioP2;P2;SDS_P1;SDS_P2;PMS_P1;PMS_P2;Temp;Humidity;BMP_temperature;BMP_pressure;BME280_temperature;BME280_humidity;BME280_pressure;Samples;Min_cycle;Max_cycle;Signal;HPM_P1;HPM_P2
2021/12/06 00:01:47;;;;;;;3.10;1.40;;;;;;;14.74;44.38;95337.22;5033494;28;20079;-30
2021/12/06 00:04:18;;;;;;;3.22;1.00;;;;;;;14.79;43.96;95343.22;5033408;28;20053;-30
2021/12/06 00:06:47;;;;;;;2.38;0.93;;;;;;;14.80;43.92;95348.22;5033948;28;20018;-30
2021/12/06 00:09:18;;;;;;;2.70;1.23;;;;;;;14.78;44.17;95341.72;5034189;28;20027;-30
2021/12/06 00:11:44;;;;;;;3.80;1.10;;;;;;;14.74;44.14;95345.41;5033536;28;20100;-30
2021/12/06 00:14:09;;;;;;;3.33;1.05;;;;;;;14.76;44.01;95339.47;5033537;28;20570;-30
2021/12/06 00:16:35;;;;;;;1.85;1.08;;;;;;;14.78;43.94;95331.56;5033308;28;20026;-30
2021/12/06 00:19:02;;;;;;;1.20;0.80;;;;;;;14.71;44.16;95326.53;5033455;28;20021;-30
2021/12/06 00:21:28;;;;;;;1.80;1.00;;;;;;;14.72;44.29;95328.75;5032097;28;20060;-30
2021/12/06 00:23:54;;;;;;;3.58;1.27;;;;;;;14.70;44.17;95331.25;5033264;28;20487;-30
2021/12/06 00:26:20;;;;;;;2.75;1.10;;;;;;;14.74;44.16;95326.31;5033798;28;20072;-30
2021/12/06 00:28:46;;;;;;;2.80;1.13;;;;;;;14.74;44.00;95331.75;5033467;28;20021;-30
2021/12/06 00:31:14;;;;;;;2.25;0.90;;;;;;;14.78;43.74;95320.66;5033152;28;20037;-30
2021/12/06 00:33:40;;;;;;;3.45;1.20;;;;;;;14.76;43.73;95330.53;5033393;28;20063;-30
2021/12/06 00:36:15;;;;;;;2.78;1.13;;;;;;;14.71;44.04;95330.00;5033105;28;20036;-30
2021/12/06 00:38:42;;;;;;;3.85;1.15;;;;;;;14.67;44.06;95324.00;5033185;28;20100;-30
2021/12/06 00:41:08;;;;;;;3.47;0.90;;;;;;;14.72;43.79;95323.31;5033142;28;20090;-30
2021/12/06 00:43:34;;;;;;;2.28;1.10;;;;;;;14.74;43.97;95320.84;5032993;28;20053;-30
2021/12/06 00:45:59;;;;;;;2.30;0.90;;;;;;;14.77;43.69;95312.94;5033049;28;20183;-30
2021/12/06 00:48:25;;;;;;;4.65;1.00;;;;;;;14.76;43.80;95312.19;5033153;28;20025;-30
2021/12/06 00:50:50;;;;;;;4.63;0.93;;;;;;;14.71;43.92;95305.44;5033034;28;20022;-30
2021/12/06 00:53:16;;;;;;;2.67;1.33;;;;;;;14.69;43.73;95313.38;5033125;28;20043;-30
2021/12/06 00:55:41;;;;;;;2.65;0.80;;;;;;;14.72;43.75;95306.94;5032881;28;20025;-30
2021/12/06 00:58:07;;;;;;;3.22;0.95;;;;;;;14.72;43.75;95320.56;5032713;28;20419;-30
2021/12/06 01:00:35;;;;;;;3.17;0.98;;;;;;;14.73;43.86;95318.59;5031619;28;20022;-30
2021/12/06 01:03:04;;;;;;;3.33;1.33;;;;;;;14.74;43.82;95320.09;5036662;28;20025;-30
2021/12/06 01:05:30;;;;;;;3.58;1.30;;;;;;;14.74;43.66;95317.38;5037022;28;20092;-30
2021/12/06 01:07:56;;;;;;;2.08;1.23;;;;;;;14.76;43.78;95322.34;5036742;28;20040;-30
2021/12/06 01:10:26;;;;;;;4.18;1.10;;;;;;;14.77;43.65;95324.59;5036788;28;20464;-30
2021/12/06 01:12:52;;;;;;;5.93;1.23;;;;;;;14.79;43.47;95326.84;5036560;28;20095;-30
2021/12/06 01:15:18;;;;;;;3.42;1.10;;;;;;;14.79;43.51;95326.84;5036587;28;20426;-30
2021/12/06 01:17:45;;;;;;;2.00;1.05;;;;;;;14.70;43.72;95322.31;5036832;28;20022;-30
2021/12/06 01:20:15;;;;;;;2.08;0.75;;;;;;;14.72;43.75;95311.63;5036742;28;20029;-30
2021/12/06 01:22:50;;;;;;;1.92;1.20;;;;;;;14.69;43.60;95309.88;5025531;28;20037;-30
2021/12/06 01:25:47;;;;;;;2.17;1.05;;;;;;;14.68;44.04;95313.84;5014970;28;20476;-30
2021/12/06 01:31:01;;;;;;;2.65;1.02;;;;;;;14.69;43.55;95307.91;5016636;28;20502;-30
2021/12/06 01:34:08;;;;;;;4.40;0.98;;;;;;;14.66;43.78;95305.38;5016548;28;20080;-30
2021/12/06 01:39:17;;;;;;;4.47;1.15;;;;;;;14.68;43.83;95303.69;5016536;28;20105;-30
2021/12/06 01:41:51;;;;;;;3.85;1.13;;;;;;;14.72;43.34;95301.47;5016686;28;20033;-30
2021/12/06 01:44:28;;;;;;;3.05;1.02;;;;;;;14.68;43.54;95300.94;5016595;28;20025;-30
2021/12/06 01:46:59;;;;;;;3.85;1.02;;;;;;;14.65;43.90;95296.44;5015039;28;20026;-30
2021/12/06 01:49:29;;;;;;;2.53;1.10;;;;;;;14.66;43.77;95297.94;5016666;28;20022;-30
2021/12/06 01:51:58;;;;;;;2.47;1.10;;;;;;;14.71;43.36;95310.16;5016088;28;20104;-30
2021/12/06 01:54:24;;;;;;;4.18;1.17;;;;;;;14.69;43.43;95297.00;5016285;28;20026;-30
2021/12/06 01:56:51;;;;;;;3.08;0.98;;;;;;;14.67;43.67;95299.44;5016146;28;20475;-30
2021/12/06 01:59:17;;;;;;;4.28;1.30;;;;;;;14.71;43.40;95304.69;5016208;28;20049;-30
2021/12/06 02:01:42;;;;;;;1.80;0.70;;;;;;;14.66;43.71;95295.22;5014930;28;20472;-30
2021/12/06 02:04:09;;;;;;;2.17;0.98;;;;;;;14.61;43.72;95301.34;5015969;28;20026;-30
2021/12/06 02:06:36;;;;;;;4.63;1.10;;;;;;;14.62;43.77;95297.41;5014698;28;20014;-30
2021/12/06 02:09:04;;;;;;;3.65;1.00;;;;;;;14.66;43.84;95303.41;5015974;28;20546;-30
2021/12/06 02:11:33;;;;;;;4.07;0.77;;;;;;;14.74;43.70;95292.81;5015693;28;20033;-30
2021/12/06 02:14:07;;;;;;;1.15;0.80;;;;;;;14.64;43.88;95299.66;5014503;28;20022;-30
2021/12/06 02:16:54;;;;;;;1.77;0.70;;;;;;;14.61;43.60;95290.44;5015784;28;20022;-30
2021/12/06 02:19:19;;;;;;;6.47;1.10;;;;;;;14.67;43.72;95294.00;5015904;28;20029;-30
2021/12/06 02:21:45;;;;;;;2.88;1.20;;;;;;;14.64;43.70;95294.19;5015578;28;20033;-30
2021/12/06 02:24:10;;;;;;;3.35;0.80;;;;;;;14.66;43.75;95286.28;5015715;28;20057;-30
2021/12/06 02:26:40;;;;;;;3.00;0.70;;;;;;;14.65;43.61;95285.53;5015517;28;20107;-30
2021/12/06 02:29:07;;;;;;;2.50;0.77;;;;;;;14.69;43.71;95285.31;5015431;28;20025;-30
2021/12/06 02:31:33;;;;;;;4.68;0.93;;;;;;;14.67;43.72;95277.63;5015516;28;20077;-30
2021/12/06 02:33:59;;;;;;;2.75;0.70;;;;;;;14.62;43.81;95286.47;5015670;28;20476;-30
2021/12/06 02:36:26;;;;;;;2.72;0.80;;;;;;;14.64;43.53;95286.75;5015286;28;20101;-30
2021/12/06 02:38:51;;;;;;;2.15;0.90;;;;;;;14.49;43.95;95277.91;5014325;28;20105;-30
2021/12/06 02:41:19;;;;;;;4.60;0.80;;;;;;;14.58;43.97;95275.03;5015446;28;20464;-30
2021/12/06 02:43:45;;;;;;;2.47;0.60;;;;;;;14.63;43.81;95277.06;5015252;28;20026;-30
2021/12/06 02:46:11;;;;;;;2.67;0.93;;;;;;;14.63;43.66;95281.78;5015467;28;20468;-30
2021/12/06 02:48:37;;;;;;;2.58;1.08;;;;;;;14.63;43.63;95282.53;5015541;28;20037;-30
2021/12/06 02:51:06;;;;;;;5.50;1.00;;;;;;;14.54;43.78;95273.75;5015153;28;20026;-30
2021/12/06 02:53:34;;;;;;;2.15;0.70;;;;;;;14.62;43.88;95275.56;5014949;28;20034;-30
2021/12/06 02:56:04;;;;;;;4.22;1.10;;;;;;;14.58;43.96;95275.03;5014993;28;20030;-30
2021/12/06 03:01:35;;;;;;;3.65;1.10;;;;;;;14.63;43.77;95282.53;5015291;28;20025;-30
2021/12/06 03:04:02;;;;;;;3.38;0.80;;;;;;;14.65;43.40;95290.22;5015134;28;20029;-30
2021/12/06 03:06:28;;;;;;;3.95;0.68;;;;;;;14.62;43.80;95285.72;5014880;28;20033;-30
2021/12/06 03:09:08;;;;;;;4.05;1.02;;;;;;;14.62;43.62;95281.03;5014709;28;20037;-30
2021/12/06 03:11:48;;;;;;;2.55;0.90;;;;;;;14.59;43.34;95270.31;5014860;28;20092;-30
2021/12/06 03:14:18;;;;;;;6.13;1.30;;;;;;;14.60;43.82;95264.38;5014688;28;20025;-30
2021/12/06 03:16:44;;;;;;;5.47;1.10;;;;;;;14.59;43.50;95259.41;5014919;28;20051;-30
2021/12/06 03:19:10;;;;;;;1.90;0.80;;;;;;;14.59;43.58;95265.59;5014526;28;20424;-30
2021/12/06 03:21:36;;;;;;;4.70;1.10;;;;;;;14.60;43.72;95261.66;5014504;28;20030;-30
2021/12/06 03:24:03;;;;;;;3.30;1.02;;;;;;;14.55;43.63;95258.88;5014407;28;20084;-30
2021/12/06 03:26:30;;;;;;;3.63;0.80;;;;;;;14.59;43.69;95260.16;5014513;28;20026;-30
2021/12/06 03:28:55;;;;;;;3.55;1.00;;;;;;;14.59;43.91;95251.97;5014740;28;20026;-30
2021/12/06 03:31:22;;;;;;;2.10;0.65;;;;;;;14.53;43.66;95250.41;5014360;28;20029;-30
2021/12/06 03:33:51;;;;;;;4.72;1.00;;;;;;;14.45;43.66;95252.84;5014237;28;20021;-30
2021/12/06 03:36:19;;;;;;;2.15;0.70;;;;;;;14.55;43.92;95247.97;5014246;28;20022;-30
2021/12/06 03:38:46;;;;;;;7.75;1.58;;;;;;;14.58;43.90;95250.50;5014222;28;20026;-31
2021/12/06 03:41:14;;;;;;;2.00;0.77;;;;;;;14.57;43.66;95257.19;5014140;28;20037;-30
2021/12/06 03:43:41;;;;;;;3.20;0.90;;;;;;;14.50;43.68;95251.38;5014240;28;20034;-30
2021/12/06 03:46:07;;;;;;;2.03;1.13;;;;;;;14.49;43.76;95245.16;5014143;28;20037;-30
2021/12/06 03:48:32;;;;;;;2.92;1.10;;;;;;;14.60;43.62;95239.06;5013973;28;20048;-30
2021/12/06 03:50:59;;;;;;;4.45;1.23;;;;;;;14.46;43.88;95240.69;5014240;28;20022;-30
2021/12/06 03:53:26;;;;;;;4.43;1.10;;;;;;;14.52;43.78;95251.66;5014007;28;20061;-30
2021/12/06 03:55:51;;;;;;;3.00;1.00;;;;;;;14.61;43.49;95243.31;5013888;28;20428;-30
2021/12/06 03:58:17;;;;;;;4.45;1.00;;;;;;;14.44;43.80;95243.16;5013765;28;20050;-30
2021/12/06 04:00:42;;;;;;;4.97;1.08;;;;;;;14.46;43.90;95254.34;5013805;28;20034;-30
2021/12/06 04:03:09;;;;;;;3.53;1.15;;;;;;;14.37;44.16;95254.44;5013730;28;20079;-30
2021/12/06 04:05:34;;;;;;;2.25;0.90;;;;;;;14.47;43.69;95252.31;5013975;28;20026;-30
2021/12/06 04:08:00;;;;;;;4.10;1.55;;;;;;;14.40;43.98;95247.31;5013756;28;20109;-30
2021/12/06 04:10:26;;;;;;;2.33;0.95;;;;;;;14.48;43.72;95242.91;5013764;28;20033;-30
2021/12/06 04:12:57;;;;;;;3.38;1.27;;;;;;;14.55;43.71;95256.16;5013589;28;20022;-30
2021/12/06 04:15:23;;;;;;;4.00;1.17;;;;;;;14.50;43.77;95252.13;5013607;28;20484;-30
2021/12/06 04:17:49;;;;;;;3.60;1.00;;;;;;;14.50;43.54;95265.75;5013900;28;20037;-30
2021/12/06 04:20:15;;;;;;;4.97;1.92;;;;;;;14.51;43.29;95264.53;5013845;28;20022;-30
2021/12/06 04:22:41;;;;;;;4.65;1.48;;;;;;;14.53;43.45;95262.09;5013777;28;20030;-30
2021/12/06 04:25:12;;;;;;;2.70;1.30;;;;;;;14.47;43.55;95263.25;5013649;28;20116;-30
2021/12/06 04:27:39;;;;;;;2.78;1.05;;;;;;;14.43;43.37;95258.00;5013656;28;20036;-30
2021/12/06 04:30:08;;;;;;;3.72;1.40;;;;;;;14.37;43.60;95259.88;5013742;28;20069;-30
2021/12/06 04:32:35;;;;;;;5.78;1.35;;;;;;;14.43;43.21;95263.47;5013522;28;20480;-30
2021/12/06 04:35:00;;;;;;;2.80;1.35;;;;;;;14.40;43.71;95260.94;5013447;28;20030;-30
2021/12/06 04:37:26;;;;;;;4.32;1.00;;;;;;;14.41;43.38;95262.44;5016279;28;20025;-30
2021/12/06 04:39:51;;;;;;;2.83;1.38;;;;;;;14.37;43.70;95271.53;5017747;28;20068;-30
2021/12/06 04:42:19;;;;;;;3.63;1.20;;;;;;;14.47;43.40;95274.91;5018035;28;20033;-30
2021/12/06 04:44:45;;;;;;;3.58;1.75;;;;;;;14.37;43.50;95276.25;5017919;28;20025;-30
2021/12/06 04:47:10;;;;;;;3.45;1.30;;;;;;;14.31;43.62;95278.19;5017287;28;20022;-30
2021/12/06 04:49:36;;;;;;;3.05;1.17;;;;;;;14.24;43.58;95273.88;5017386;28;20021;-30
2021/12/06 04:52:04;;;;;;;2.45;1.35;;;;;;;14.33;43.52;95278.47;5017278;28;20072;-30
2021/12/06 04:54:34;;;;;;;3.22;1.35;;;;;;;14.14;43.62;95277.97;5017238;28;20025;-30
2021/12/06 04:57:26;;;;;;;2.50;1.15;;;;;;;14.24;43.58;95279.31;5017268;28;20034;-30
2021/12/06 04:59:56;;;;;;;2.63;1.27;;;;;;;14.35;43.15;95289.63;5013087;28;20057;-30
2021/12/06 05:02:26;;;;;;;4.10;1.77;;;;;;;14.34;43.11;95277.94;5017253;28;20040;-30
2021/12/06 05:05:05;;;;;;;3.28;1.25;;;;;;;14.44;43.02;95286.78;5016962;28;20468;-30
2021/12/06 05:07:36;;;;;;;4.15;1.42;;;;;;;14.43;42.94;95290.00;5017658;28;20056;-30
2021/12/06 05:10:04;;;;;;;3.78;1.35;;;;;;;14.37;43.07;95298.81;5017282;28;20018;-30
2021/12/06 05:12:31;;;;;;;2.13;1.40;;;;;;;14.17;43.28;95287.94;5017021;28;20036;-30
2021/12/06 05:14:57;;;;;;;4.50;1.10;;;;;;;14.30;43.20;95293.03;5016828;28;20535;-30
2021/12/06 05:17:23;;;;;;;4.45;1.40;;;;;;;14.41;43.10;95304.09;5016933;28;20061;-30
2021/12/06 05:19:49;;;;;;;4.60;1.20;;;;;;;14.34;43.26;95301.78;5015448;28;20480;-30
2021/12/06 05:22:15;;;;;;;2.45;1.27;;;;;;;14.41;42.68;95306.09;5016735;28;20029;-30
2021/12/06 05:24:41;;;;;;;3.30;1.23;;;;;;;14.34;42.67;95310.69;5016695;28;20057;-30
2021/12/06 05:27:07;;;;;;;4.50;1.38;;;;;;;14.45;42.81;95315.56;5016665;28;20033;-30
2021/12/06 05:29:33;;;;;;;3.28;1.23;;;;;;;14.11;43.30;95308.91;5016623;28;20049;-30
2021/12/06 05:32:00;;;;;;;3.58;1.63;;;;;;;14.29;43.03;95319.56;5016756;28;20029;-30
2021/12/06 05:34:38;;;;;;;2.92;1.00;;;;;;;14.41;42.64;95327.91;5016419;28;20021;-30
2021/12/06 05:37:06;;;;;;;4.03;1.30;;;;;;;14.36;42.80;95321.88;5016489;28;20148;-30
2021/12/06 05:39:32;;;;;;;4.95;1.27;;;;;;;14.43;42.56;95336.38;5016549;28;20029;-30
2021/12/06 05:42:01;;;;;;;2.95;1.38;;;;;;;14.44;42.54;95332.41;5031609;28;20025;-30
2021/12/06 05:44:27;;;;;;;3.97;1.08;;;;;;;14.51;42.39;95343.66;5016716;28;20380;-30
2021/12/06 05:46:53;;;;;;;2.38;1.23;;;;;;;14.42;42.77;95343.06;5015975;28;20472;-30
2021/12/06 05:49:19;;;;;;;4.88;1.52;;;;;;;14.51;42.54;95338.19;5016325;28;20476;-30
2021/12/06 05:51:44;;;;;;;3.70;1.20;;;;;;;14.32;42.41;95351.34;5016237;28;20068;-30
2021/12/06 05:54:10;;;;;;;3.97;1.33;;;;;;;14.40;42.49;95343.53;5016377;28;20504;-30
2021/12/06 05:56:35;;;;;;;2.17;1.13;;;;;;;14.44;42.33;95346.81;5015996;28;20030;-30
2021/12/06 05:59:02;;;;;;;2.08;1.10;;;;;;;14.45;42.35;95355.75;5015927;28;20097;-30
2021/12/06 06:01:30;;;;;;;3.58;1.30;;;;;;;14.35;42.25;95365.97;5016032;28;20512;-30
2021/12/06 06:04:01;;;;;;;2.08;1.02;;;;;;;14.39;42.51;95369.28;5016315;28;20064;-30
2021/12/06 06:06:30;;;;;;;2.42;1.25;;;;;;;14.46;42.14;95366.19;5013960;28;20018;-30
2021/12/06 06:08:56;;;;;;;4.70;1.48;;;;;;;14.30;42.30;95381.06;5028978;28;20492;-30
2021/12/06 06:11:22;;;;;;;2.20;0.98;;;;;;;14.31;42.20;95376.38;5013702;28;20076;-30
2021/12/06 06:13:47;;;;;;;2.97;1.10;;;;;;;14.43;42.28;95366.38;5013750;28;20022;-30
2021/12/06 06:16:17;;;;;;;3.35;1.10;;;;;;;14.33;42.24;95368.47;5017491;28;20045;-30
2021/12/06 06:18:43;;;;;;;4.00;1.10;;;;;;;14.32;42.14;95364.97;5031828;28;20030;-30
2021/12/06 06:21:09;;;;;;;2.75;1.35;;;;;;;14.32;42.01;95366.97;5033769;28;20545;-30
2021/12/06 06:23:34;;;;;;;3.53;1.40;;;;;;;14.38;41.88;95365.03;5033591;28;20427;-30
2021/12/06 06:25:59;;;;;;;3.45;1.17;;;;;;;14.32;42.45;95373.16;5033783;28;20021;-30
2021/12/06 06:28:25;;;;;;;2.72;1.35;;;;;;;14.37;42.04;95372.47;5033303;28;20029;-30
2021/12/06 06:30:51;;;;;;;4.13;1.40;;;;;;;14.41;42.15;95380.47;5033419;28;20030;-30
2021/12/06 06:33:16;;;;;;;5.47;1.30;;;;;;;14.35;41.97;95383.09;5032078;28;20029;-30
2021/12/06 06:35:42;;;;;;;5.03;2.05;;;;;;;14.36;42.15;95383.84;5032825;28;20498;-30
2021/12/06 06:38:07;;;;;;;4.30;1.63;;;;;;;14.36;41.94;95384.59;5033154;28;20029;-30
2021/12/06 06:40:33;;;;;;;1.67;1.08;;;;;;;14.32;42.11;95394.22;5033191;28;20029;-30
2021/12/06 06:42:58;;;;;;;3.03;1.13;;;;;;;14.43;42.04;95391.69;5033065;28;20098;-30
2021/12/06 06:45:24;;;;;;;1.55;1.10;;;;;;;14.43;41.95;95388.94;5031821;28;20095;-30
2021/12/06 06:47:50;;;;;;;3.30;1.30;;;;;;;14.46;41.51;95398.16;5033246;28;20021;-30
2021/12/06 06:50:17;;;;;;;1.95;1.20;;;;;;;14.34;41.96;95392.50;5033153;28;20033;-30
2021/12/06 06:52:43;;;;;;;5.13;1.30;;;;;;;14.36;41.49;95400.22;5032157;28;20434;-30
2021/12/06 06:55:10;;;;;;;3.05;1.30;;;;;;;14.45;41.61;95402.88;5032749;28;20025;-30
2021/12/06 06:57:36;;;;;;;3.97;1.50;;;;;;;14.42;41.58;95386.69;5032753;28;20021;-30
2021/12/06 07:00:08;;;;;;;2.75;1.33;;;;;;;14.41;41.26;95383.22;5032168;28;20042;-30
2021/12/06 07:02:34;;;;;;;2.97;1.70;;;;;;;14.35;41.52;95382.34;5032974;28;20035;-30
2021/12/06 07:04:59;;;;;;;2.40;1.40;;;;;;;14.40;41.37;95381.72;5032514;28;20017;-30
2021/12/06 07:07:25;;;;;;;3.58;1.60;;;;;;;14.33;41.44;95390.28;5032919;28;20045;-30
2021/12/06 07:09:50;;;;;;;2.85;1.30;;;;;;;14.33;41.27;95382.09;5032872;28;20025;-30
2021/12/06 07:12:16;;;;;;;2.85;1.50;;;;;;;14.36;41.26;95381.13;5032695;28;20029;-30
2021/12/06 07:14:44;;;;;;;4.32;1.90;;;;;;;14.20;41.54;95389.84;5032521;28;20021;-30
2021/12/06 07:17:10;;;;;;;3.97;1.77;;;;;;;14.25;41.66;95402.78;5032270;28;20104;-30
2021/12/06 07:19:36;;;;;;;2.13;1.20;;;;;;;14.24;41.77;95404.00;5030625;28;20100;-30
2021/12/06 07:22:02;;;;;;;3.17;1.33;;;;;;;14.22;41.35;95406.47;5032516;28;20026;-30
2021/12/06 07:24:28;;;;;;;2.65;1.63;;;;;;;14.24;41.68;95412.19;5032328;28;20033;-30
2021/12/06 07:26:54;;;;;;;2.42;1.23;;;;;;;14.19;41.26;95424.53;5032290;28;20025;-30
2021/12/06 07:29:19;;;;;;;2.70;1.45;;;;;;;14.24;41.15;95410.22;5032098;28;20068;-30
2021/12/06 07:31:45;;;;;;;4.25;1.77;;;;;;;14.26;41.38;95401.56;5032215;28;20021;-30
2021/12/06 07:34:10;;;;;;;3.30;1.60;;;;;;;14.10;41.29;95410.25;5032293;28;20383;-30
2021/12/06 07:36:36;;;;;;;3.67;1.65;;;;;;;14.16;41.17;95408.38;5032299;28;20128;-30
2021/12/06 07:39:02;;;;;;;3.25;1.48;;;;;;;14.16;40.93;95409.13;5032208;28;20037;-30
2021/12/06 07:41:28;;;;;;;2.67;1.30;;;;;;;14.22;41.14;95417.38;5031820;28;20056;-30
2021/12/06 07:43:59;;;;;;;2.50;1.60;;;;;;;14.11;41.33;95412.50;5032083;28;20044;-30
2021/12/06 07:46:24;;;;;;;1.98;1.40;;;;;;;14.05;41.14;95419.13;5031819;28;20531;-30
2021/12/06 07:48:52;;;;;;;3.28;1.52;;;;;;;14.11;41.32;95420.69;5032089;28;20044;-30
2021/12/06 07:51:24;;;;;;;3.22;1.40;;;;;;;14.11;41.40;95422.66;5031749;28;20017;-30
2021/12/06 07:53:50;;;;;;;2.53;1.33;;;;;;;14.04;41.46;95418.38;5019133;28;20045;-30
2021/12/06 07:56:16;;;;;;;2.47;1.30;;;;;;;13.50;42.27;95436.06;5033508;28;20443;-30
2021/12/06 07:58:42;;;;;;;2.33;1.60;;;;;;;13.92;41.01;95447.44;5033498;28;20083;-30
2021/12/06 08:01:09;;;;;;;2.65;1.88;;;;;;;14.06;40.53;95436.97;5033813;28;20109;-30
2021/12/06 08:03:35;;;;;;;5.80;1.80;;;;;;;14.03;40.65;95433.97;5033941;28;20026;-30
2021/12/06 08:06:00;;;;;;;4.13;1.88;;;;;;;13.95;41.15;95446.50;5033829;28;20025;-30
2021/12/06 08:08:29;;;;;;;3.40;2.08;;;;;;;14.12;40.72;95445.97;5033399;28;20383;-30
2021/12/06 08:10:58;;;;;;;3.50;1.75;;;;;;;14.10;41.02;95448.41;5033101;28;20025;-30
2021/12/06 08:13:29;;;;;;;2.75;1.60;;;;;;;14.17;40.67;95443.34;5033406;28;20029;-30
2021/12/06 08:15:58;;;;;;;3.85;1.85;;;;;;;14.19;40.58;95451.06;5033463;28;20030;-30
2021/12/06 08:18:24;;;;;;;3.00;2.00;;;;;;;14.06;40.91;95454.09;5033590;28;20029;-30
2021/12/06 08:20:51;;;;;;;2.78;1.80;;;;;;;14.14;40.51;95455.19;5033669;28;20032;-29
2021/12/06 08:23:17;;;;;;;2.38;1.30;;;;;;;14.07;40.67;95461.03;5033400;28;20028;-30
2021/12/06 08:25:46;;;;;;;2.92;1.42;;;;;;;14.13;40.46;95474.75;5033838;28;20097;-30
2021/12/06 08:28:12;;;;;;;2.83;1.40;;;;;;;14.13;40.53;95472.03;5031865;28;20479;-30
2021/12/06 08:30:37;;;;;;;2.47;1.55;;;;;;;14.19;40.65;95481.06;5032299;28;20037;-29
2021/12/06 08:33:05;;;;;;;2.58;1.63;;;;;;;14.20;40.28;95480.59;5033174;28;20021;-30
2021/12/06 08:35:32;;;;;;;1.90;1.38;;;;;;;14.27;40.68;95473.97;5033065;28;20475;-30
2021/12/06 08:37:59;;;;;;;3.83;1.60;;;;;;;14.26;40.46;95475.19;5033189;28;20018;-30
2021/12/06 08:40:26;;;;;;;2.55;1.65;;;;;;;14.17;40.57;95475.31;5033144;28;20025;-30
2021/12/06 08:42:52;;;;;;;3.88;1.60;;;;;;;14.20;40.82;95485.28;5033418;28;20029;-30
2021/12/06 08:45:18;;;;;;;1.77;1.35;;;;;;;14.18;40.58;95488.47;5033225;28;20467;-30
2021/12/06 08:47:44;;;;;;;2.67;1.70;;;;;;;14.22;40.43;95494.47;5033165;28;20025;-30
2021/12/06 08:50:15;;;;;;;2.30;1.52;;;;;;;14.14;40.80;95490.66;5033076;28;20032;-30
2021/12/06 08:52:41;;;;;;;3.60;2.00;;;;;;;14.03;40.95;95498.66;5033111;28;20018;-30
2021/12/06 08:55:08;;;;;;;3.00;1.80;;;;;;;14.02;40.65;95503.34;5033007;28;20483;-30
2021/12/06 08:57:35;;;;;;;4.28;1.83;;;;;;;14.03;41.01;95504.84;5032878;28;20108;-30
2021/12/06 09:00:04;;;;;;;2.70;1.83;;;;;;;13.99;40.16;95515.19;5033175;28;20368;-30
2021/12/06 09:02:30;;;;;;;4.03;2.15;;;;;;;14.07;40.73;95520.28;5033007;28;20113;-30
2021/12/06 09:04:56;;;;;;;4.15;1.85;;;;;;;14.22;40.19;95521.75;5033198;28;20100;-30
2021/12/06 09:07:23;;;;;;;3.13;2.20;;;;;;;14.14;40.46;95519.88;5032969;28;20109;-30
2021/12/06 09:09:50;;;;;;;3.53;2.20;;;;;;;14.18;40.86;95521.22;5032890;28;20025;-30
2021/12/06 09:12:21;;;;;;;3.28;2.20;;;;;;;14.23;40.48;95528.72;5032968;28;20116;-30
2021/12/06 09:14:48;;;;;;;3.17;1.85;;;;;;;14.04;40.69;95521.97;5031439;28;20018;-30
2021/12/06 09:17:14;;;;;;;5.40;2.00;;;;;;;14.07;40.64;95520.28;5032419;28;20021;-30
2021/12/06 09:19:43;;;;;;;4.13;2.80;;;;;;;12.54;40.89;95533.34;5032016;28;20029;-29
2021/12/06 09:22:09;;;;;;;4.20;2.40;;;;;;;12.93;41.05;95531.47;5033361;28;20475;-29
2021/12/06 09:24:35;;;;;;;4.55;2.50;;;;;;;13.47;39.79;95530.38;5036312;28;20040;-29
2021/12/06 09:27:01;;;;;;;4.22;2.50;;;;;;;13.80;39.65;95529.47;5036388;28;20018;-29
2021/12/06 09:29:27;;;;;;;3.92;2.25;;;;;;;13.76;40.04;95534.34;5036425;28;20027;-29
2021/12/06 09:31:57;;;;;;;4.90;2.25;;;;;;;13.86;39.60;95536.50;5036152;28;20442;-29
2021/12/06 09:34:23;;;;;;;5.85;2.58;;;;;;;14.03;39.74;95542.25;5036203;28;20434;-29
2021/12/06 09:36:49;;;;;;;3.38;2.30;;;;;;;13.96;40.10;95531.75;5036132;28;20100;-29
2021/12/06 09:39:14;;;;;;;4.47;2.58;;;;;;;13.72;40.13;95540.00;5036185;28;20031;-29
2021/12/06 09:41:41;;;;;;;4.03;2.30;;;;;;;13.76;40.24;95547.97;5036270;28;20028;-29
2021/12/06 09:44:09;;;;;;;4.53;2.70;;;;;;;13.98;39.85;95549.13;5036215;28;20032;-29
2021/12/06 09:46:36;;;;;;;5.82;2.45;;;;;;;14.05;40.05;95555.44;5035982;28;20028;-29
2021/12/06 09:49:12;;;;;;;4.15;2.38;;;;;;;13.99;40.05;95558.03;5036230;28;20025;-29
2021/12/06 09:51:40;;;;;;;3.30;2.10;;;;;;;13.94;39.75;95550.53;5036003;28;20026;-29
2021/12/06 09:54:07;;;;;;;5.20;2.95;;;;;;;13.98;40.22;95553.81;5034252;28;20025;-29
2021/12/06 09:56:37;;;;;;;4.22;2.38;;;;;;;14.01;40.29;95556.34;5033864;28;20049;-29
2021/12/06 09:59:06;;;;;;;3.30;2.20;;;;;;;13.75;40.69;95549.94;5035266;28;20056;-29
2021/12/06 10:01:39;;;;;;;3.60;2.25;;;;;;;13.78;40.76;95559.91;5067834;28;20395;-29
2021/12/06 10:04:09;;;;;;;4.30;2.45;;;;;;;13.90;40.33;95552.69;5035768;28;20029;-29
2021/12/06 10:06:34;;;;;;;6.70;2.42;;;;;;;14.07;40.15;95553.75;5035907;28;20025;-29
2021/12/06 10:09:03;;;;;;;3.95;2.35;;;;;;;14.03;40.13;95550.44;5035685;28;20022;-29
2021/12/06 10:11:28;;;;;;;5.65;2.03;;;;;;;14.07;40.44;95553.00;5034405;28;20116;-29
2021/12/06 10:13:55;;;;;;;2.63;1.70;;;;;;;14.16;40.15;95547.44;5035655;28;20029;-29
2021/12/06 10:16:21;;;;;;;3.15;2.10;;;;;;;14.01;40.22;95556.34;5035409;28;20021;-29
2021/12/06 10:18:47;;;;;;;5.18;2.78;;;;;;;14.03;40.56;95559.38;5035700;28;20032;-29
2021/12/06 10:21:14;;;;;;;3.35;1.75;;;;;;;14.08;40.32;95559.94;5035490;28;20029;-29
2021/12/06 10:23:42;;;;;;;3.83;1.88;;;;;;;14.17;40.09;95560.59;5067522;28;20037;-29
2021/12/06 10:26:10;;;;;;;3.15;1.80;;;;;;;14.08;40.21;95555.25;5035091;28;20068;-29
2021/12/06 10:28:39;;;;;;;3.88;2.13;;;;;;;14.07;40.26;95558.44;5035084;28;20470;-29
2021/12/06 10:31:06;;;;;;;4.53;1.70;;;;;;;13.97;40.63;95544.88;5035411;28;20045;-29
2021/12/06 10:33:36;;;;;;;3.53;1.77;;;;;;;14.10;40.29;95543.84;5034641;28;20049;-29
2021/12/06 10:36:08;;;;;;;2.50;1.58;;;;;;;13.95;40.92;95547.34;5034919;28;20026;-29
2021/12/06 10:38:43;;;;;;;3.10;1.95;;;;;;;14.12;40.36;95538.69;5035394;28;20494;-29
2021/12/06 10:41:13;;;;;;;2.30;1.45;;;;;;;13.64;40.94;95530.66;5033817;28;20399;-29
2021/12/06 10:43:40;;;;;;;3.13;1.77;;;;;;;13.96;40.79;95527.06;5035123;28;20022;-29
2021/12/06 10:46:08;;;;;;;2.15;1.30;;;;;;;13.65;40.85;95532.94;5035000;28;20033;-29
2021/12/06 10:48:36;;;;;;;3.78;1.70;;;;;;;13.83;40.93;95528.53;5034947;28;20021;-29
2021/12/06 10:51:04;;;;;;;2.72;1.50;;;;;;;13.81;40.34;95523.56;5034836;28;20037;-29
2021/12/06 10:53:37;;;;;;;1.88;1.10;;;;;;;13.97;40.63;95525.06;5034736;28;20032;-29
2021/12/06 10:56:05;;;;;;;3.13;1.63;;;;;;;14.01;40.23;95528.34;5034800;28;20456;-30
2021/12/06 10:58:30;;;;;;;3.05;1.58;;;;;;;14.05;40.31;95520.00;5034659;28;20131;-29
2021/12/06 11:01:01;;;;;;;2.92;1.40;;;;;;;14.08;40.18;95525.25;5033610;28;20056;-29
2021/12/06 11:03:33;;;;;;;3.35;1.35;;;;;;;14.24;40.21;95535.66;5034740;28;20033;-29
2021/12/06 11:06:09;;;;;;;4.20;1.40;;;;;;;13.97;40.32;95531.25;5034858;28;20032;-29
2021/12/06 11:08:37;;;;;;;1.90;1.42;;;;;;;13.93;40.59;95527.97;5034616;28;20246;-29
2021/12/06 11:11:13;;;;;;;1.75;1.20;;;;;;;14.07;40.29;95531.19;5034400;28;20049;-29
2021/12/06 11:13:49;;;;;;;2.33;1.27;;;;;;;14.07;40.29;95529.22;5034535;28;20028;-29
2021/12/06 11:16:24;;;;;;;2.85;1.42;;;;;;;14.03;40.29;95536.81;5033374;28;20102;-29
2021/12/06 11:19:05;;;;;;;2.28;1.38;;;;;;;14.13;40.35;95518.38;5034309;28;20533;-29
2021/12/06 11:21:34;;;;;;;2.35;1.33;;;;;;;14.10;40.26;95536.41;5034256;28;20025;-29
2021/12/06 11:24:17;;;;;;;1.92;1.27;;;;;;;13.93;40.75;95533.44;5034212;28;20159;-29
2021/12/06 11:26:52;;;;;;;1.92;1.30;;;;;;;14.06;40.70;95529.69;5034293;28;20388;-29
2021/12/06 11:29:24;;;;;;;1.75;1.13;;;;;;;14.10;40.71;95530.22;5034235;28;20025;-29
2021/12/06 11:31:59;;;;;;;3.35;1.30;;;;;;;14.01;40.88;95528.34;5034070;28;20021;-29
2021/12/06 11:34:32;;;;;;;3.75;1.63;;;;;;;13.98;40.76;95521.84;5034292;28;20036;-29
2021/12/06 11:36:58;;;;;;;2.13;1.10;;;;;;;14.06;40.50;95524.22;5034085;28;20029;-29
2021/12/06 11:39:24;;;;;;;1.92;1.20;;;;;;;14.08;40.78;95522.53;5033969;28;20029;-29
2021/12/06 11:41:53;;;;;;;2.08;1.23;;;;;;;13.71;41.04;95516.69;5033952;28;20025;-29
2021/12/06 11:44:30;;;;;;;1.40;1.10;;;;;;;13.91;40.78;95524.97;5033875;28;20083;-29
2021/12/06 11:46:59;;;;;;;4.18;1.35;;;;;;;14.08;40.63;95519.81;5033651;28;20021;-29